sensor_id;sensor_type;location;lat;lon;timestamp;temperature;humidity
28336;DHT22;15592;53.656;7.276;2024-03-23T00:53:37;6.40;99.90
28336;DHT22;15592;53.656;7.276;2024-03-23T00:56:02;6.40;99.90
28336;DHT22;15592;53.656;7.276;2024-03-23T00:58:29;6.30;99.90
28336;DHT22;15592;53.656;7.276;2024-03-23T01:00:54;6.30;99.90
28336;DHT22;15592;53.656;7.276;2024-03-23T01:03:20;6.30;99.90
28336;DHT22;15592;53.656;7.276;2024-03-23T01:05:46;6.30;99.90
28336;DHT22;15592;53.656;7.276;2024-03-23T01:08:11;6.30;99.90
28336;DHT22;15592;53.656;7.276;2024-03-23T01:10:37;6.30;99.90
28336;DHT22;15592;53.656;7.276;2024-03-23T01:13:02;6.30;99.90
28336;DHT22;15592;53.656;7.276;2024-03-23T01:15:28;6.20;99.90
28336;DHT22;15592;53.656;7.276;2024-03-23T01:17:53;6.30;99.90
28336;DHT22;15592;53.656;7.276;2024-03-23T01:20:19;6.20;99.90
28336;DHT22;15592;53.656;7.276;2024-03-23T01:22:44;6.20;99.90
28336;DHT22;15592;53.656;7.276;2024-03-23T01:25:10;6.20;99.90
28336;DHT22;15592;53.656;7.276;2024-03-23T01:27:36;6.20;99.90
28336;DHT22;15592;53.656;7.276;2024-03-23T01:30:01;6.20;99.90
28336;DHT22;15592;53.656;7.276;2024-03-23T01:32:27;6.10;99.90
28336;DHT22;15592;53.656;7.276;2024-03-23T01:34:53;6.10;99.90
28336;DHT22;15592;53.656;7.276;2024-03-23T01:37:18;6.10;99.90
28336;DHT22;15592;53.656;7.276;2024-03-23T01:39:44;6.00;99.90
28336;DHT22;15592;53.656;7.276;2024-03-23T01:42:09;6.00;99.90
28336;DHT22;15592;53.656;7.276;2024-03-23T01:44:35;6.00;99.90
28336;DHT22;15592;53.656;7.276;2024-03-23T01:47:01;6.00;99.90
28336;DHT22;15592;53.656;7.276;2024-03-23T01:49:27;6.00;99.90
28336;DHT22;15592;53.656;7.276;2024-03-23T01:51:52;6.00;99.90
28336;DHT22;15592;53.656;7.276;2024-03-23T01:54:18;5.90;99.90
28336;DHT22;15592;53.656;7.276;2024-03-23T01:56:44;6.00;99.90
28336;DHT22;15592;53.656;7.276;2024-03-23T01:59:10;5.90;99.90
28336;DHT22;15592;53.656;7.276;2024-03-23T02:01:36;5.90;99.90
28336;DHT22;15592;53.656;7.276;2024-03-23T02:04:02;5.90;99.90
28336;DHT22;15592;53.656;7.276;2024-03-23T02:06:27;5.90;99.90
28336;DHT22;15592;53.656;7.276;2024-03-23T02:08:54;5.90;99.90
28336;DHT22;15592;53.656;7.276;2024-03-23T02:11:20;5.90;99.90
28336;DHT22;15592;53.656;7.276;2024-03-23T02:13:45;5.90;99.90
28336;DHT22;15592;53.656;7.276;2024-03-23T02:16:11;5.90;99.90
28336;DHT22;15592;53.656;7.276;2024-03-23T02:18:38;5.80;99.90
28336;DHT22;15592;53.656;7.276;2024-03-23T02:21:04;5.90;99.90
28336;DHT22;15592;53.656;7.276;2024-03-23T02:23:30;5.80;99.90
28336;DHT22;15592;53.656;7.276;2024-03-23T02:25:56;5.80;99.90
28336;DHT22;15592;53.656;7.276;2024-03-23T02:28:21;5.80;99.90
28336;DHT22;15592;53.656;7.276;2024-03-23T02:30:49;5.80;99.90
28336;DHT22;15592;53.656;7.276;2024-03-23T02:33:15;5.80;99.90
28336;DHT22;15592;53.656;7.276;2024-03-23T02:35:40;5.80;99.90
28336;DHT22;15592;53.656;7.276;2024-03-23T02:38:06;5.70;99.90
28336;DHT22;15592;53.656;7.276;2024-03-23T02:40:33;5.70;99.90
28336;DHT22;15592;53.656;7.276;2024-03-23T02:42:58;5.70;99.90
28336;DHT22;15592;53.656;7.276;2024-03-23T02:45:24;5.70;99.90
28336;DHT22;15592;53.656;7.276;2024-03-23T02:47:49;5.70;99.90
28336;DHT22;15592;53.656;7.276;2024-03-23T02:50:19;5.70;99.90
28336;DHT22;15592;53.656;7.276;2024-03-23T02:52:45;5.70;99.90
28336;DHT22;15592;53.656;7.276;2024-03-23T02:55:10;5.70;99.90
28336;DHT22;15592;53.656;7.276;2024-03-23T02:57:36;5.70;99.90
28336;DHT22;15592;53.656;7.276;2024-03-23T03:00:02;5.70;99.90
28336;DHT22;15592;53.656;7.276;2024-03-23T03:02:27;5.60;99.90
28336;DHT22;15592;53.656;7.276;2024-03-23T03:04:53;5.60;99.90
28336;DHT22;15592;53.656;7.276;2024-03-23T03:07:19;5.60;99.90
28336;DHT22;15592;53.656;7.276;2024-03-23T03:09:44;5.60;99.90
28336;DHT22;15592;53.656;7.276;2024-03-23T03:12:10;5.60;99.90
28336;DHT22;15592;53.656;7.276;2024-03-23T03:14:35;5.60;99.90
28336;DHT22;15592;53.656;7.276;2024-03-23T03:17:01;5.60;99.90
28336;DHT22;15592;53.656;7.276;2024-03-23T03:19:27;5.60;99.90
28336;DHT22;15592;53.656;7.276;2024-03-23T03:21:53;5.60;99.90
28336;DHT22;15592;53.656;7.276;2024-03-23T03:24:18;5.60;99.90
28336;DHT22;15592;53.656;7.276;2024-03-23T03:26:44;5.60;99.90
28336;DHT22;15592;53.656;7.276;2024-03-23T03:29:10;5.60;99.90
28336;DHT22;15592;53.656;7.276;2024-03-23T03:31:37;5.60;99.90
28336;DHT22;15592;53.656;7.276;2024-03-23T03:34:03;5.60;99.90
28336;DHT22;15592;53.656;7.276;2024-03-23T03:36:28;5.60;99.90
28336;DHT22;15592;53.656;7.276;2024-03-23T03:38:54;5.60;99.90
28336;DHT22;15592;53.656;7.276;2024-03-23T03:41:20;5.60;99.90
28336;DHT22;15592;53.656;7.276;2024-03-23T03:43:45;5.60;99.90
28336;DHT22;15592;53.656;7.276;2024-03-23T03:46:11;5.60;99.90
28336;DHT22;15592;53.656;7.276;2024-03-23T03:48:37;5.60;99.90
28336;DHT22;15592;53.656;7.276;2024-03-23T03:51:03;5.50;99.90
28336;DHT22;15592;53.656;7.276;2024-03-23T03:53:29;5.50;99.90
28336;DHT22;15592;53.656;7.276;2024-03-23T03:55:56;5.50;99.90
28336;DHT22;15592;53.656;7.276;2024-03-23T03:58:21;5.50;99.90
28336;DHT22;15592;53.656;7.276;2024-03-23T04:00:47;5.50;99.90
28336;DHT22;15592;53.656;7.276;2024-03-23T04:03:13;5.40;99.90
28336;DHT22;15592;53.656;7.276;2024-03-23T04:05:38;5.40;99.90
28336;DHT22;15592;53.656;7.276;2024-03-23T04:08:05;5.40;99.90
28336;DHT22;15592;53.656;7.276;2024-03-23T04:10:31;5.40;99.90
28336;DHT22;15592;53.656;7.276;2024-03-23T04:12:56;5.40;99.90
28336;DHT22;15592;53.656;7.276;2024-03-23T04:15:22;5.30;99.90
28336;DHT22;15592;53.656;7.276;2024-03-23T04:17:48;5.40;99.90
28336;DHT22;15592;53.656;7.276;2024-03-23T04:20:13;5.30;99.90
28336;DHT22;15592;53.656;7.276;2024-03-23T04:22:42;5.30;99.90
28336;DHT22;15592;53.656;7.276;2024-03-23T04:25:08;5.40;99.90
28336;DHT22;15592;53.656;7.276;2024-03-23T04:27:39;5.40;99.90
28336;DHT22;15592;53.656;7.276;2024-03-23T04:30:06;5.40;99.90
28336;DHT22;15592;53.656;7.276;2024-03-23T04:32:39;5.40;99.90
28336;DHT22;15592;53.656;7.276;2024-03-23T04:35:05;5.40;99.90
28336;DHT22;15592;53.656;7.276;2024-03-23T04:37:32;5.30;99.90
28336;DHT22;15592;53.656;7.276;2024-03-23T04:40:00;5.30;99.90
28336;DHT22;15592;53.656;7.276;2024-03-23T04:42:27;5.30;99.90
28336;DHT22;15592;53.656;7.276;2024-03-23T04:44:53;5.30;99.90
28336;DHT22;15592;53.656;7.276;2024-03-23T04:47:18;5.40;99.90
28336;DHT22;15592;53.656;7.276;2024-03-23T04:49:44;5.40;99.90
28336;DHT22;15592;53.656;7.276;2024-03-23T04:52:10;5.40;99.90
28336;DHT22;15592;53.656;7.276;2024-03-23T04:54:35;5.30;99.90
28336;DHT22;15592;53.656;7.276;2024-03-23T04:57:01;5.30;99.90
28336;DHT22;15592;53.656;7.276;2024-03-23T04:59:26;5.30;99.90
28336;DHT22;15592;53.656;7.276;2024-03-23T05:01:52;5.30;99.90
28336;DHT22;15592;53.656;7.276;2024-03-23T05:04:17;5.30;99.90
28336;DHT22;15592;53.656;7.276;2024-03-23T05:06:45;5.30;99.90
28336;DHT22;15592;53.656;7.276;2024-03-23T05:09:11;5.30;99.90
28336;DHT22;15592;53.656;7.276;2024-03-23T05:11:40;5.30;99.90
28336;DHT22;15592;53.656;7.276;2024-03-23T05:14:12;5.20;99.90
28336;DHT22;15592;53.656;7.276;2024-03-23T05:16:38;5.20;99.90
28336;DHT22;15592;53.656;7.276;2024-03-23T05:19:04;5.20;99.90
28336;DHT22;15592;53.656;7.276;2024-03-23T05:21:29;5.20;99.90
28336;DHT22;15592;53.656;7.276;2024-03-23T05:23:55;5.20;99.90
28336;DHT22;15592;53.656;7.276;2024-03-23T05:26:22;5.30;99.90
28336;DHT22;15592;53.656;7.276;2024-03-23T05:28:50;5.30;99.90
28336;DHT22;15592;53.656;7.276;2024-03-23T05:31:24;5.30;99.90
28336;DHT22;15592;53.656;7.276;2024-03-23T05:33:49;5.30;99.90
28336;DHT22;15592;53.656;7.276;2024-03-23T05:36:15;5.30;99.90
28336;DHT22;15592;53.656;7.276;2024-03-23T05:38:43;5.20;99.90
28336;DHT22;15592;53.656;7.276;2024-03-23T05:41:09;5.30;99.90
28336;DHT22;15592;53.656;7.276;2024-03-23T05:43:34;5.20;99.90
28336;DHT22;15592;53.656;7.276;2024-03-23T05:46:00;5.20;99.90
28336;DHT22;15592;53.656;7.276;2024-03-23T05:48:35;5.20;99.90
28336;DHT22;15592;53.656;7.276;2024-03-23T05:51:01;5.30;99.90
28336;DHT22;15592;53.656;7.276;2024-03-23T05:53:26;5.30;99.90
28336;DHT22;15592;53.656;7.276;2024-03-23T05:56:01;5.30;99.90
28336;DHT22;15592;53.656;7.276;2024-03-23T05:58:32;5.50;99.90
28336;DHT22;15592;53.656;7.276;2024-03-23T06:00:59;5.60;99.90
28336;DHT22;15592;53.656;7.276;2024-03-23T06:03:26;5.80;99.90
28336;DHT22;15592;53.656;7.276;2024-03-23T06:05:52;5.80;99.90
28336;DHT22;15592;53.656;7.276;2024-03-23T06:08:18;5.90;99.90
28336;DHT22;15592;53.656;7.276;2024-03-23T06:10:45;5.90;99.90
28336;DHT22;15592;53.656;7.276;2024-03-23T06:13:11;6.00;99.90
28336;DHT22;15592;53.656;7.276;2024-03-23T06:15:37;5.90;99.90
28336;DHT22;15592;53.656;7.276;2024-03-23T06:18:03;5.80;99.90
28336;DHT22;15592;53.656;7.276;2024-03-23T06:20:33;5.80;99.90
28336;DHT22;15592;53.656;7.276;2024-03-23T06:22:59;5.80;99.90
28336;DHT22;15592;53.656;7.276;2024-03-23T06:25:25;5.80;99.90
28336;DHT22;15592;53.656;7.276;2024-03-23T06:27:50;5.80;99.90
28336;DHT22;15592;53.656;7.276;2024-03-23T06:30:16;5.80;99.90
28336;DHT22;15592;53.656;7.276;2024-03-23T06:32:42;5.80;99.90
28336;DHT22;15592;53.656;7.276;2024-03-23T06:35:08;5.90;99.90
28336;DHT22;15592;53.656;7.276;2024-03-23T06:37:36;5.90;99.90
28336;DHT22;15592;53.656;7.276;2024-03-23T06:40:01;6.00;99.90
28336;DHT22;15592;53.656;7.276;2024-03-23T06:42:27;6.10;99.90
28336;DHT22;15592;53.656;7.276;2024-03-23T06:44:53;6.10;99.90
28336;DHT22;15592;53.656;7.276;2024-03-23T06:47:19;6.10;99.90
28336;DHT22;15592;53.656;7.276;2024-03-23T06:49:44;6.10;99.90
28336;DHT22;15592;53.656;7.276;2024-03-23T06:52:10;6.10;99.90
28336;DHT22;15592;53.656;7.276;2024-03-23T06:54:36;6.00;99.90
28336;DHT22;15592;53.656;7.276;2024-03-23T06:57:01;6.00;99.90
28336;DHT22;15592;53.656;7.276;2024-03-23T06:59:27;6.00;99.90
28336;DHT22;15592;53.656;7.276;2024-03-23T07:01:52;6.10;99.90
28336;DHT22;15592;53.656;7.276;2024-03-23T07:04:18;6.20;99.90
28336;DHT22;15592;53.656;7.276;2024-03-23T07:06:44;6.20;99.90
28336;DHT22;15592;53.656;7.276;2024-03-23T07:09:10;6.30;99.90
28336;DHT22;15592;53.656;7.276;2024-03-23T07:11:39;6.30;99.90
28336;DHT22;15592;53.656;7.276;2024-03-23T07:14:05;6.30;99.90
28336;DHT22;15592;53.656;7.276;2024-03-23T07:16:30;6.40;99.90
28336;DHT22;15592;53.656;7.276;2024-03-23T07:18:56;6.50;99.90
28336;DHT22;15592;53.656;7.276;2024-03-23T07:21:25;6.60;99.90
28336;DHT22;15592;53.656;7.276;2024-03-23T07:23:51;6.60;99.90
28336;DHT22;15592;53.656;7.276;2024-03-23T07:26:16;6.70;99.90
28336;DHT22;15592;53.656;7.276;2024-03-23T07:28:43;6.80;99.90
28336;DHT22;15592;53.656;7.276;2024-03-23T07:31:11;6.90;99.90
28336;DHT22;15592;53.656;7.276;2024-03-23T07:33:41;7.00;99.90
28336;DHT22;15592;53.656;7.276;2024-03-23T07:36:07;7.10;99.90
28336;DHT22;15592;53.656;7.276;2024-03-23T07:38:33;7.10;99.90
28336;DHT22;15592;53.656;7.276;2024-03-23T07:41:06;7.20;99.90
28336;DHT22;15592;53.656;7.276;2024-03-23T07:43:32;7.40;99.90
28336;DHT22;15592;53.656;7.276;2024-03-23T07:45:58;7.40;99.90
28336;DHT22;15592;53.656;7.276;2024-03-23T07:48:24;7.40;99.90
28336;DHT22;15592;53.656;7.276;2024-03-23T07:53:28;7.20;99.90
28336;DHT22;15592;53.656;7.276;2024-03-23T07:56:08;7.20;99.90
28336;DHT22;15592;53.656;7.276;2024-03-23T07:58:35;7.20;99.90
28336;DHT22;15592;53.656;7.276;2024-03-23T08:01:12;7.30;99.90
28336;DHT22;15592;53.656;7.276;2024-03-23T08:03:39;7.30;99.90
28336;DHT22;15592;53.656;7.276;2024-03-23T08:06:16;7.30;99.90
28336;DHT22;15592;53.656;7.276;2024-03-23T08:08:46;7.40;99.90
28336;DHT22;15592;53.656;7.276;2024-03-23T08:11:12;7.40;99.90
28336;DHT22;15592;53.656;7.276;2024-03-23T08:13:42;7.30;99.90
28336;DHT22;15592;53.656;7.276;2024-03-23T08:16:10;7.30;99.90
28336;DHT22;15592;53.656;7.276;2024-03-23T08:18:35;7.30;99.90
28336;DHT22;15592;53.656;7.276;2024-03-23T08:21:05;7.20;99.90
28336;DHT22;15592;53.656;7.276;2024-03-23T08:23:32;7.20;99.90
28336;DHT22;15592;53.656;7.276;2024-03-23T08:26:06;7.20;99.90
28336;DHT22;15592;53.656;7.276;2024-03-23T08:28:32;7.30;99.90
28336;DHT22;15592;53.656;7.276;2024-03-23T08:31:01;7.40;99.90
28336;DHT22;15592;53.656;7.276;2024-03-23T08:33:33;7.40;99.90
28336;DHT22;15592;53.656;7.276;2024-03-23T08:36:01;7.50;99.90
28336;DHT22;15592;53.656;7.276;2024-03-23T08:38:27;7.50;99.90
28336;DHT22;15592;53.656;7.276;2024-03-23T08:41:01;7.60;99.90
28336;DHT22;15592;53.656;7.276;2024-03-23T08:43:31;7.60;99.90
28336;DHT22;15592;53.656;7.276;2024-03-23T08:46:06;7.60;99.90
28336;DHT22;15592;53.656;7.276;2024-03-23T08:48:34;7.70;99.90
28336;DHT22;15592;53.656;7.276;2024-03-23T08:51:07;7.80;99.90
28336;DHT22;15592;53.656;7.276;2024-03-23T08:53:42;7.80;99.90
28336;DHT22;15592;53.656;7.276;2024-03-23T08:56:09;7.90;99.90
28336;DHT22;15592;53.656;7.276;2024-03-23T08:58:36;7.90;99.90
28336;DHT22;15592;53.656;7.276;2024-03-23T09:01:07;8.00;99.90
28336;DHT22;15592;53.656;7.276;2024-03-23T09:03:33;8.10;99.90
28336;DHT22;15592;53.656;7.276;2024-03-23T09:05:59;8.20;99.90
28336;DHT22;15592;53.656;7.276;2024-03-23T09:08:25;8.30;99.90
28336;DHT22;15592;53.656;7.276;2024-03-23T09:10:51;8.30;99.90
28336;DHT22;15592;53.656;7.276;2024-03-23T09:13:17;8.30;99.90
28336;DHT22;15592;53.656;7.276;2024-03-23T09:15:51;8.20;99.90
28336;DHT22;15592;53.656;7.276;2024-03-23T09:18:17;8.10;99.90
28336;DHT22;15592;53.656;7.276;2024-03-23T09:20:42;8.00;99.90
28336;DHT22;15592;53.656;7.276;2024-03-23T09:23:08;8.00;99.90
28336;DHT22;15592;53.656;7.276;2024-03-23T09:25:40;8.10;99.90
28336;DHT22;15592;53.656;7.276;2024-03-23T09:28:06;8.10;99.90
28336;DHT22;15592;53.656;7.276;2024-03-23T09:30:34;8.20;99.90
28336;DHT22;15592;53.656;7.276;2024-03-23T09:33:00;8.20;99.90
28336;DHT22;15592;53.656;7.276;2024-03-23T09:35:26;8.10;99.90
28336;DHT22;15592;53.656;7.276;2024-03-23T09:37:52;8.10;99.90
28336;DHT22;15592;53.656;7.276;2024-03-23T09:40:18;8.10;99.90
28336;DHT22;15592;53.656;7.276;2024-03-23T09:42:49;8.10;99.90
28336;DHT22;15592;53.656;7.276;2024-03-23T09:45:26;8.20;99.90
28336;DHT22;15592;53.656;7.276;2024-03-23T09:47:52;8.40;99.90
28336;DHT22;15592;53.656;7.276;2024-03-23T09:50:18;8.50;99.90
28336;DHT22;15592;53.656;7.276;2024-03-23T09:52:46;8.50;99.90
28336;DHT22;15592;53.656;7.276;2024-03-23T09:55:12;8.60;99.90
28336;DHT22;15592;53.656;7.276;2024-03-23T09:57:37;8.70;99.90
28336;DHT22;15592;53.656;7.276;2024-03-23T10:00:04;8.80;99.90
28336;DHT22;15592;53.656;7.276;2024-03-23T10:02:29;8.80;99.90
28336;DHT22;15592;53.656;7.276;2024-03-23T10:04:55;8.90;99.90
28336;DHT22;15592;53.656;7.276;2024-03-23T10:07:23;9.00;99.90
28336;DHT22;15592;53.656;7.276;2024-03-23T10:09:49;9.20;99.90
28336;DHT22;15592;53.656;7.276;2024-03-23T10:12:19;9.40;99.90
28336;DHT22;15592;53.656;7.276;2024-03-23T10:14:45;9.60;99.90
28336;DHT22;15592;53.656;7.276;2024-03-23T10:17:18;9.70;99.90
28336;DHT22;15592;53.656;7.276;2024-03-23T10:19:47;9.60;99.90
28336;DHT22;15592;53.656;7.276;2024-03-23T10:22:20;9.50;99.90
28336;DHT22;15592;53.656;7.276;2024-03-23T10:24:47;9.30;99.90
28336;DHT22;15592;53.656;7.276;2024-03-23T10:27:17;9.00;99.90
28336;DHT22;15592;53.656;7.276;2024-03-23T10:29:44;8.80;99.90
28336;DHT22;15592;53.656;7.276;2024-03-23T10:32:11;8.60;99.90
28336;DHT22;15592;53.656;7.276;2024-03-23T10:34:37;8.60;99.90
28336;DHT22;15592;53.656;7.276;2024-03-23T10:37:04;8.70;99.90
28336;DHT22;15592;53.656;7.276;2024-03-23T10:39:34;9.00;99.90
28336;DHT22;15592;53.656;7.276;2024-03-23T10:42:06;9.10;99.90
28336;DHT22;15592;53.656;7.276;2024-03-23T10:44:33;9.20;99.90
28336;DHT22;15592;53.656;7.276;2024-03-23T10:46:59;9.30;99.90
28336;DHT22;15592;53.656;7.276;2024-03-23T10:49:31;9.30;99.90
28336;DHT22;15592;53.656;7.276;2024-03-23T10:51:58;9.30;99.90
28336;DHT22;15592;53.656;7.276;2024-03-23T10:54:25;9.30;99.90
28336;DHT22;15592;53.656;7.276;2024-03-23T10:56:56;9.30;99.90
28336;DHT22;15592;53.656;7.276;2024-03-23T10:59:24;9.30;99.90
28336;DHT22;15592;53.656;7.276;2024-03-23T11:02:00;9.20;99.90
28336;DHT22;15592;53.656;7.276;2024-03-23T11:04:34;9.20;99.90
28336;DHT22;15592;53.656;7.276;2024-03-23T11:09:45;9.30;99.90
28336;DHT22;15592;53.656;7.276;2024-03-23T11:15:05;9.50;99.90
28336;DHT22;15592;53.656;7.276;2024-03-23T11:17:32;9.60;99.90
28336;DHT22;15592;53.656;7.276;2024-03-23T11:19:59;9.60;99.90
28336;DHT22;15592;53.656;7.276;2024-03-23T11:22:46;9.50;99.90
28336;DHT22;15592;53.656;7.276;2024-03-23T11:27:47;9.00;99.90
28336;DHT22;15592;53.656;7.276;2024-03-23T11:30:17;9.10;99.90
28336;DHT22;15592;53.656;7.276;2024-03-23T11:32:45;9.20;99.90
28336;DHT22;15592;53.656;7.276;2024-03-23T11:35:33;9.50;99.90
28336;DHT22;15592;53.656;7.276;2024-03-23T11:40:31;9.80;99.90
28336;DHT22;15592;53.656;7.276;2024-03-23T11:43:01;9.90;99.90
28336;DHT22;15592;53.656;7.276;2024-03-23T11:45:28;9.90;99.90
28336;DHT22;15592;53.656;7.276;2024-03-23T11:48:05;9.90;99.90
28336;DHT22;15592;53.656;7.276;2024-03-23T11:50:30;9.80;99.90
28336;DHT22;15592;53.656;7.276;2024-03-23T11:53:11;9.70;99.90
28336;DHT22;15592;53.656;7.276;2024-03-23T11:58:20;9.80;99.90
28336;DHT22;15592;53.656;7.276;2024-03-23T12:00:58;9.70;99.90
28336;DHT22;15592;53.656;7.276;2024-03-23T12:03:26;9.70;99.90
28336;DHT22;15592;53.656;7.276;2024-03-23T12:05:53;9.60;99.90
28336;DHT22;15592;53.656;7.276;2024-03-23T12:08:21;9.50;99.90
28336;DHT22;15592;53.656;7.276;2024-03-23T12:10:49;9.40;99.90
28336;DHT22;15592;53.656;7.276;2024-03-23T12:13:20;9.30;99.90
28336;DHT22;15592;53.656;7.276;2024-03-23T12:15:47;9.20;99.90
28336;DHT22;15592;53.656;7.276;2024-03-23T12:18:13;9.20;99.90
28336;DHT22;15592;53.656;7.276;2024-03-23T12:20:39;9.10;99.90
28336;DHT22;15592;53.656;7.276;2024-03-23T12:23:11;9.10;99.90
28336;DHT22;15592;53.656;7.276;2024-03-23T12:25:39;9.20;99.90
28336;DHT22;15592;53.656;7.276;2024-03-23T12:28:05;9.30;99.90
28336;DHT22;15592;53.656;7.276;2024-03-23T12:30:35;9.30;99.90
28336;DHT22;15592;53.656;7.276;2024-03-23T12:33:01;9.30;99.90
28336;DHT22;15592;53.656;7.276;2024-03-23T12:35:27;9.30;99.90
28336;DHT22;15592;53.656;7.276;2024-03-23T12:37:53;9.40;99.90
28336;DHT22;15592;53.656;7.276;2024-03-23T12:40:18;9.50;99.90
28336;DHT22;15592;53.656;7.276;2024-03-23T12:42:44;9.40;99.90
28336;DHT22;15592;53.656;7.276;2024-03-23T12:45:09;9.50;99.90
28336;DHT22;15592;53.656;7.276;2024-03-23T12:47:35;9.60;99.90
28336;DHT22;15592;53.656;7.276;2024-03-23T12:50:01;9.60;99.90
28336;DHT22;15592;53.656;7.276;2024-03-23T12:52:27;9.70;99.90
28336;DHT22;15592;53.656;7.276;2024-03-23T12:54:56;9.70;99.90
28336;DHT22;15592;53.656;7.276;2024-03-23T12:57:25;9.80;99.90
28336;DHT22;15592;53.656;7.276;2024-03-23T12:59:52;9.80;99.90
28336;DHT22;15592;53.656;7.276;2024-03-23T13:02:21;9.90;99.90
28336;DHT22;15592;53.656;7.276;2024-03-23T13:04:49;10.00;99.90
28336;DHT22;15592;53.656;7.276;2024-03-23T13:07:15;10.00;99.90
28336;DHT22;15592;53.656;7.276;2024-03-23T13:09:41;10.10;99.90
28336;DHT22;15592;53.656;7.276;2024-03-23T13:12:07;10.00;99.90
28336;DHT22;15592;53.656;7.276;2024-03-23T13:14:33;10.00;99.90
28336;DHT22;15592;53.656;7.276;2024-03-23T13:16:59;10.00;99.90
28336;DHT22;15592;53.656;7.276;2024-03-23T13:19:25;9.90;99.90
28336;DHT22;15592;53.656;7.276;2024-03-23T13:21:54;9.70;99.90
28336;DHT22;15592;53.656;7.276;2024-03-23T13:24:24;9.50;99.90
28336;DHT22;15592;53.656;7.276;2024-03-23T13:26:50;9.40;99.90
28336;DHT22;15592;53.656;7.276;2024-03-23T13:29:17;9.30;99.90
28336;DHT22;15592;53.656;7.276;2024-03-23T13:31:46;9.40;99.90
28336;DHT22;15592;53.656;7.276;2024-03-23T13:34:12;9.20;99.90
28336;DHT22;15592;53.656;7.276;2024-03-23T13:36:40;9.20;99.90
28336;DHT22;15592;53.656;7.276;2024-03-23T13:39:07;9.20;99.90
28336;DHT22;15592;53.656;7.276;2024-03-23T13:41:40;9.20;99.90
28336;DHT22;15592;53.656;7.276;2024-03-23T13:44:09;9.20;99.90
28336;DHT22;15592;53.656;7.276;2024-03-23T13:46:41;9.20;99.90
28336;DHT22;15592;53.656;7.276;2024-03-23T13:51:49;9.10;99.90
28336;DHT22;15592;53.656;7.276;2024-03-23T13:54:15;9.10;99.90
28336;DHT22;15592;53.656;7.276;2024-03-23T13:56:41;9.10;99.90
28336;DHT22;15592;53.656;7.276;2024-03-23T13:59:06;9.20;99.90
28336;DHT22;15592;53.656;7.276;2024-03-23T14:01:32;9.20;99.90
28336;DHT22;15592;53.656;7.276;2024-03-23T14:03:57;9.20;99.90
28336;DHT22;15592;53.656;7.276;2024-03-23T14:06:23;9.20;99.90
28336;DHT22;15592;53.656;7.276;2024-03-23T14:08:49;9.30;99.90
28336;DHT22;15592;53.656;7.276;2024-03-23T14:11:15;9.20;99.90
28336;DHT22;15592;53.656;7.276;2024-03-23T14:13:40;9.20;99.90
28336;DHT22;15592;53.656;7.276;2024-03-23T14:16:06;9.20;99.90
28336;DHT22;15592;53.656;7.276;2024-03-23T14:18:32;9.20;99.90
28336;DHT22;15592;53.656;7.276;2024-03-23T14:21:01;9.20;99.90
28336;DHT22;15592;53.656;7.276;2024-03-23T14:23:27;9.20;99.90
28336;DHT22;15592;53.656;7.276;2024-03-23T14:25:57;9.10;99.90
28336;DHT22;15592;53.656;7.276;2024-03-23T14:28:23;9.10;99.90
28336;DHT22;15592;53.656;7.276;2024-03-23T14:30:50;9.00;99.90
28336;DHT22;15592;53.656;7.276;2024-03-23T14:33:16;8.90;99.90
28336;DHT22;15592;53.656;7.276;2024-03-23T14:35:42;8.80;99.90
28336;DHT22;15592;53.656;7.276;2024-03-23T14:38:08;8.80;99.90
28336;DHT22;15592;53.656;7.276;2024-03-23T14:40:34;8.70;99.90
28336;DHT22;15592;53.656;7.276;2024-03-23T14:42:59;8.70;99.90
28336;DHT22;15592;53.656;7.276;2024-03-23T14:45:25;8.70;99.90
28336;DHT22;15592;53.656;7.276;2024-03-23T14:47:51;8.60;99.90
28336;DHT22;15592;53.656;7.276;2024-03-23T14:50:17;8.60;99.90
28336;DHT22;15592;53.656;7.276;2024-03-23T14:52:46;8.70;99.90
28336;DHT22;15592;53.656;7.276;2024-03-23T14:55:12;8.70;99.90
28336;DHT22;15592;53.656;7.276;2024-03-23T14:57:38;8.80;99.90
28336;DHT22;15592;53.656;7.276;2024-03-23T15:00:10;9.00;99.90
28336;DHT22;15592;53.656;7.276;2024-03-23T15:02:39;9.20;99.90
28336;DHT22;15592;53.656;7.276;2024-03-23T15:05:05;9.20;99.90
28336;DHT22;15592;53.656;7.276;2024-03-23T15:07:33;9.20;99.90
28336;DHT22;15592;53.656;7.276;2024-03-23T15:09:59;9.10;99.90
28336;DHT22;15592;53.656;7.276;2024-03-23T15:12:25;9.10;99.90
28336;DHT22;15592;53.656;7.276;2024-03-23T15:14:50;9.10;99.90
28336;DHT22;15592;53.656;7.276;2024-03-23T15:17:16;9.20;99.90
28336;DHT22;15592;53.656;7.276;2024-03-23T15:19:42;9.10;99.90
28336;DHT22;15592;53.656;7.276;2024-03-23T15:22:10;9.10;99.90
28336;DHT22;15592;53.656;7.276;2024-03-23T15:24:36;9.00;99.90
28336;DHT22;15592;53.656;7.276;2024-03-23T15:27:03;9.00;99.90
28336;DHT22;15592;53.656;7.276;2024-03-23T15:29:29;9.00;99.90
28336;DHT22;15592;53.656;7.276;2024-03-23T15:31:54;9.00;99.90
28336;DHT22;15592;53.656;7.276;2024-03-23T15:34:20;8.90;99.90
28336;DHT22;15592;53.656;7.276;2024-03-23T15:36:52;8.90;99.90
28336;DHT22;15592;53.656;7.276;2024-03-23T15:39:17;8.90;99.90
28336;DHT22;15592;53.656;7.276;2024-03-23T15:41:47;8.80;99.90
28336;DHT22;15592;53.656;7.276;2024-03-23T15:44:13;8.70;99.90
28336;DHT22;15592;53.656;7.276;2024-03-23T15:46:39;8.70;99.90
28336;DHT22;15592;53.656;7.276;2024-03-23T15:49:05;8.70;99.90
28336;DHT22;15592;53.656;7.276;2024-03-23T15:51:31;8.80;99.90
28336;DHT22;15592;53.656;7.276;2024-03-23T15:54:00;8.80;99.90
28336;DHT22;15592;53.656;7.276;2024-03-23T15:56:26;8.90;99.90
28336;DHT22;15592;53.656;7.276;2024-03-23T15:58:52;8.90;99.90
28336;DHT22;15592;53.656;7.276;2024-03-23T16:01:17;8.90;99.90
28336;DHT22;15592;53.656;7.276;2024-03-23T16:03:43;8.80;99.90
28336;DHT22;15592;53.656;7.276;2024-03-23T16:06:09;8.70;99.90
28336;DHT22;15592;53.656;7.276;2024-03-23T16:08:35;8.50;99.90
28336;DHT22;15592;53.656;7.276;2024-03-23T16:11:02;8.40;99.90
28336;DHT22;15592;53.656;7.276;2024-03-23T16:13:28;8.30;99.90
28336;DHT22;15592;53.656;7.276;2024-03-23T16:16:14;8.30;99.90
28336;DHT22;15592;53.656;7.276;2024-03-23T16:18:41;8.30;99.90
28336;DHT22;15592;53.656;7.276;2024-03-23T16:21:08;8.30;99.90
28336;DHT22;15592;53.656;7.276;2024-03-23T16:23:35;8.30;99.90
28336;DHT22;15592;53.656;7.276;2024-03-23T16:26:06;8.30;99.90
28336;DHT22;15592;53.656;7.276;2024-03-23T16:28:36;8.40;99.90
28336;DHT22;15592;53.656;7.276;2024-03-23T16:31:04;8.40;99.90
28336;DHT22;15592;53.656;7.276;2024-03-23T16:33:30;8.40;99.90
28336;DHT22;15592;53.656;7.276;2024-03-23T16:36:00;8.30;99.90
28336;DHT22;15592;53.656;7.276;2024-03-23T16:38:27;8.30;99.90
28336;DHT22;15592;53.656;7.276;2024-03-23T16:43:27;8.20;99.90
28336;DHT22;15592;53.656;7.276;2024-03-23T16:45:53;8.20;99.90
28336;DHT22;15592;53.656;7.276;2024-03-23T16:48:20;8.10;99.90
28336;DHT22;15592;53.656;7.276;2024-03-23T16:50:46;8.10;99.90
28336;DHT22;15592;53.656;7.276;2024-03-23T16:53:12;8.10;99.90
28336;DHT22;15592;53.656;7.276;2024-03-23T16:55:38;8.00;99.90
28336;DHT22;15592;53.656;7.276;2024-03-23T16:58:04;7.90;99.90